createdAt,value
2018-07-24T00:01:08.262Z,32.64
2018-07-24T00:11:11.362Z,32.85
2018-07-24T00:21:14.346Z,32.79
2018-07-24T00:31:17.977Z,32.81
2018-07-24T00:41:20.982Z,32.00
2018-07-24T00:51:23.973Z,32.96
2018-07-24T01:01:27.379Z,32.70
2018-07-24T01:11:30.438Z,32.13
2018-07-24T01:21:33.407Z,33.45
2018-07-24T01:31:36.493Z,33.36
2018-07-24T01:41:39.702Z,33.72
2018-07-24T01:51:42.762Z,33.19
2018-07-24T02:01:45.738Z,33.00
2018-07-24T02:11:48.868Z,32.84
2018-07-24T02:21:52.498Z,32.66
2018-07-24T02:31:55.570Z,33.20
2018-07-24T02:41:58.778Z,33.13
2018-07-24T02:52:02.355Z,33.08
2018-07-24T03:02:06.102Z,33.36
2018-07-24T03:12:09.134Z,33.10
2018-07-24T03:22:13.381Z,32.84
2018-07-24T03:32:16.420Z,33.70
2018-07-24T03:42:19.666Z,33.86
2018-07-24T03:52:22.761Z,32.58
2018-07-24T04:02:25.882Z,33.22
2018-07-24T04:12:28.810Z,33.57
2018-07-24T04:22:32.423Z,34.23
2018-07-24T04:32:35.750Z,33.01
2018-07-24T04:42:38.938Z,34.18
2018-07-24T04:52:41.944Z,33.00
2018-07-24T05:02:45.043Z,33.52
2018-07-24T05:12:48.637Z,34.17
2018-07-24T05:22:51.693Z,32.69
2018-07-24T05:32:54.846Z,33.76
2018-07-24T05:42:58.284Z,33.68
2018-07-24T05:53:01.526Z,33.91
2018-07-24T06:03:04.634Z,34.33
2018-07-24T06:13:07.790Z,33.14
2018-07-24T06:23:10.889Z,34.07
2018-07-24T06:33:14.070Z,33.92
2018-07-24T06:43:17.190Z,33.70
2018-07-24T06:53:20.338Z,33.76
2018-07-24T07:03:23.557Z,34.38
2018-07-24T07:13:26.690Z,34.38
2018-07-24T07:23:29.926Z,34.54
2018-07-24T07:33:33.213Z,35.10
2018-07-24T07:43:36.666Z,34.59
2018-07-24T07:53:39.745Z,35.76
2018-07-24T08:03:42.909Z,35.76
2018-07-24T08:13:46.132Z,36.27
2018-07-24T08:23:49.171Z,36.20
2018-07-24T08:33:52.357Z,36.67
2018-07-24T08:43:55.796Z,35.41
2018-07-24T08:53:59.084Z,37.71
2018-07-24T09:04:01.986Z,35.95
2018-07-24T09:14:05.088Z,38.31
2018-07-24T09:24:08.305Z,36.85
2018-07-24T09:34:11.342Z,35.68
2018-07-24T09:44:14.620Z,36.55
2018-07-24T09:54:17.750Z,35.59
2018-07-24T10:04:20.853Z,35.40
2018-07-24T10:14:23.961Z,35.66
2018-07-24T10:24:27.095Z,34.59
2018-07-24T10:34:30.260Z,37.07
2018-07-24T10:44:33.389Z,35.25
2018-07-24T10:54:37.170Z,34.86
2018-07-24T11:04:40.320Z,34.72
2018-07-24T11:14:44.028Z,34.65
2018-07-24T11:24:47.394Z,33.56
2018-07-24T11:34:50.653Z,34.12
2018-07-24T11:44:55.356Z,33.27
2018-07-24T11:54:58.628Z,33.91
2018-07-24T12:05:01.750Z,35.01
2018-07-24T12:15:05.636Z,36.67
2018-07-24T12:25:08.702Z,33.95
2018-07-24T12:35:11.774Z,33.33
2018-07-24T12:45:14.937Z,33.01
2018-07-24T12:55:18.018Z,34.54
2018-07-24T13:05:21.256Z,32.80
2018-07-24T13:15:24.383Z,31.77
2018-07-24T13:25:27.499Z,32.36
2018-07-24T13:35:30.656Z,31.56
2018-07-24T13:45:33.763Z,32.44
2018-07-24T13:55:36.926Z,33.22
2018-07-24T14:05:40.079Z,32.27
